Portada
METAR-TAF:

METAR-TAF

Aeroports :

Kristianstad, Suècia

latitud: 55-55N, longitud: 014-05E, altitud: 23 m

Observació

L'informe es va fer fa 10 minuts, a les 09:50 UTC
Vent 7 kt del Sud
Temperatura 16°C
Humitat 59%
Pressió 1001 hPa
Visibilitat 10 km o més
Núvols disperses a una alçada de 2000 ft, Cumulus congestus.

METAR: ESMK 170950Z 19007KT 9999 SCT020TCU 16/08 Q1001

Hora: 12:00 (10:00 UTC)

Pronòstic

L'informe es va fer fa 1 hora i 59 minuts, a les 08:01 UTC
Pronòstic vàlid del 17 a les 09 UTC al 17 a les 15 UTC
Vent 7 kt del Sud
Visibilitat 10 km o més
Cel ennuvolat a una alçada de 800 ft
Evolucionant progressivament
l' 17 a les 09 UTC al 17 a les 11 UTC
Cel ennuvolat a una alçada de 2000 ft
Temporalment
l' 17 a les 11 UTC al 17 a les 15 UTC
Visibilitat: 4000 m
Núvols disperses a una alçada de 2000 ft, Cumulonimbus.
xàfecs de pluja

TAF: ESMK 170801Z 1709/1715 17007KT 9999 BKN008 BECMG 1709/1711 BKN020 TEMPO 1711/1715 4000 SHRA SCT020CB

Observacions i pronòstics meteorològics de més de 4000 aeroports (METAR i TAF).

Les estacions disponibles són els punts grocs i vermells al mapa.

Posi el ratolí al punt desitjat per veure el nom de l'estació.

Feu clic per veure les observacions i els pronòstics meteorològics.

Per canviar el mapa: feu clic els botons verds amb una creu de color negre per apropar; al botó verd amb un guió per allunyar la imatge; o en les fletxes verdes per a mapes adjacents.


METAR-TAF: